createdAt,value
2022-10-19T00:00:14.867Z,2.00
2022-10-19T00:00:45.441Z,2.10
2022-10-19T00:01:16.059Z,2.10
2022-10-19T00:01:46.684Z,2.10
2022-10-19T00:02:17.289Z,2.00
2022-10-19T00:02:47.853Z,2.20
2022-10-19T00:03:22.257Z,2.40
2022-10-19T00:04:19.739Z,2.00
2022-10-19T00:04:50.322Z,2.20
2022-10-19T00:05:20.890Z,2.10
2022-10-19T00:05:51.463Z,2.10
2022-10-19T00:06:22.031Z,2.40
2022-10-19T00:06:52.580Z,2.30
2022-10-19T00:07:23.134Z,2.10
2022-10-19T00:07:53.739Z,2.20
2022-10-19T00:08:24.304Z,2.20
2022-10-19T00:08:54.881Z,2.10
2022-10-19T00:09:25.466Z,2.30
2022-10-19T00:09:56.043Z,2.10
2022-10-19T00:10:26.646Z,2.30
2022-10-19T00:10:57.198Z,2.20
2022-10-19T00:11:27.774Z,2.30
2022-10-19T00:11:58.336Z,2.00
2022-10-19T00:12:28.928Z,2.10
2022-10-19T00:12:59.478Z,2.10
2022-10-19T00:13:30.071Z,2.30
2022-10-19T00:14:00.654Z,2.10
2022-10-19T00:14:31.169Z,2.10
2022-10-19T00:15:01.745Z,1.70
2022-10-19T00:15:32.325Z,2.10
2022-10-19T00:16:03.635Z,1.90
2022-10-19T00:16:33.888Z,2.00
2022-10-19T00:17:04.487Z,2.10
2022-10-19T00:17:35.304Z,2.30
2022-10-19T00:18:05.963Z,2.00
2022-10-19T00:18:36.498Z,2.60
2022-10-19T00:19:07.031Z,2.30
2022-10-19T00:19:37.615Z,2.20
2022-10-19T00:20:08.186Z,2.00
2022-10-19T00:20:38.766Z,2.30
2022-10-19T00:21:09.338Z,2.30
2022-10-19T00:21:40.038Z,2.20
2022-10-19T00:22:13.138Z,2.20
2022-10-19T00:22:41.505Z,2.00
2022-10-19T00:23:12.033Z,2.20
2022-10-19T00:23:42.637Z,2.30
2022-10-19T00:24:13.164Z,2.10
2022-10-19T00:24:43.734Z,2.20
2022-10-19T00:25:14.285Z,2.20
2022-10-19T00:25:44.847Z,2.30
2022-10-19T00:26:15.399Z,2.20
2022-10-19T00:26:46.007Z,2.30
2022-10-19T00:27:16.601Z,2.30
2022-10-19T00:27:47.174Z,2.40
2022-10-19T00:28:17.736Z,2.90
2022-10-19T00:28:48.384Z,2.60
2022-10-19T00:29:18.956Z,2.10
2022-10-19T00:29:49.551Z,2.30
2022-10-19T00:30:20.125Z,2.20
2022-10-19T00:30:50.749Z,2.40
2022-10-19T00:31:21.289Z,2.10
2022-10-19T00:31:51.847Z,2.30
2022-10-19T00:32:22.429Z,2.20
2022-10-19T00:32:52.975Z,2.30
2022-10-19T00:33:23.562Z,2.20
2022-10-19T00:33:54.116Z,2.10
2022-10-19T00:34:24.675Z,2.30
2022-10-19T00:34:55.272Z,2.00
2022-10-19T00:35:25.877Z,2.10
2022-10-19T00:35:56.453Z,2.40
2022-10-19T00:36:27.007Z,2.20
2022-10-19T00:36:57.572Z,2.40
2022-10-19T00:37:28.160Z,2.30
2022-10-19T00:37:58.717Z,2.40
2022-10-19T00:38:29.303Z,2.40
2022-10-19T00:38:59.881Z,2.40
2022-10-19T00:39:30.461Z,2.30
2022-10-19T00:40:01.080Z,2.40
2022-10-19T00:40:31.628Z,2.50
2022-10-19T00:41:02.226Z,2.70
2022-10-19T00:41:32.792Z,2.40
2022-10-19T00:42:03.335Z,2.60
2022-10-19T00:42:34.299Z,2.90
2022-10-19T00:43:04.479Z,2.70
2022-10-19T00:43:35.038Z,2.90
2022-10-19T00:44:05.606Z,2.80
2022-10-19T00:44:36.142Z,3.20
2022-10-19T00:45:06.716Z,2.90
2022-10-19T00:45:37.276Z,2.90
2022-10-19T00:46:07.876Z,2.70
2022-10-19T00:46:38.460Z,2.80
2022-10-19T00:47:09.019Z,2.90
2022-10-19T00:47:39.595Z,2.50
2022-10-19T00:48:10.141Z,2.60
2022-10-19T00:48:40.721Z,2.70
2022-10-19T00:49:11.305Z,2.70
2022-10-19T00:49:41.876Z,2.60
2022-10-19T00:50:12.440Z,2.40
2022-10-19T00:50:42.968Z,2.50
2022-10-19T00:51:13.546Z,2.80
2022-10-19T00:51:44.099Z,2.80
2022-10-19T00:52:14.669Z,2.60
2022-10-19T00:52:45.247Z,2.60
2022-10-19T00:53:15.796Z,2.50
2022-10-19T00:53:46.380Z,2.40
2022-10-19T00:54:16.976Z,2.60
2022-10-19T00:54:47.544Z,2.50
2022-10-19T00:55:18.117Z,3.10
2022-10-19T00:55:48.680Z,2.70
2022-10-19T00:56:19.263Z,2.30
2022-10-19T00:56:49.857Z,2.60
2022-10-19T00:57:20.385Z,2.40
2022-10-19T00:58:21.541Z,2.80
2022-10-19T00:58:52.138Z,2.70
2022-10-19T00:59:22.705Z,2.70
2022-10-19T00:59:53.304Z,2.20
2022-10-19T01:00:23.880Z,2.30
2022-10-19T01:00:54.500Z,2.70
2022-10-19T01:01:25.133Z,2.60
2022-10-19T01:01:55.709Z,2.30
2022-10-19T01:02:26.275Z,2.40
2022-10-19T01:02:57.000Z,2.40
2022-10-19T01:03:27.542Z,2.60
2022-10-19T01:03:58.117Z,2.30
2022-10-19T01:04:28.659Z,2.50
2022-10-19T01:04:59.194Z,2.70
2022-10-19T01:05:29.777Z,2.80
2022-10-19T01:06:00.360Z,2.50
2022-10-19T01:06:30.941Z,2.70
2022-10-19T01:07:01.516Z,2.60
2022-10-19T01:07:32.400Z,2.50
2022-10-19T01:08:02.774Z,2.70
2022-10-19T01:08:33.341Z,2.60
2022-10-19T01:09:03.886Z,2.40
2022-10-19T01:09:34.478Z,2.80
2022-10-19T01:10:05.056Z,2.50
2022-10-19T01:10:35.620Z,2.50
2022-10-19T01:11:06.200Z,2.70
2022-10-19T01:11:36.752Z,2.50
2022-10-19T01:12:07.311Z,2.60
2022-10-19T01:12:37.902Z,2.70
2022-10-19T01:13:08.496Z,2.60
2022-10-19T01:13:39.099Z,2.90
2022-10-19T01:14:09.666Z,3.00
2022-10-19T01:14:40.280Z,2.50
2022-10-19T01:15:10.854Z,2.90
2022-10-19T01:15:41.462Z,2.50
2022-10-19T01:16:12.036Z,2.90
2022-10-19T01:16:42.595Z,2.70
2022-10-19T01:17:13.173Z,3.50
2022-10-19T01:17:43.739Z,2.90
2022-10-19T01:18:14.344Z,3.00
2022-10-19T01:18:44.922Z,2.40
2022-10-19T01:19:15.479Z,2.60
2022-10-19T01:19:46.048Z,2.80
2022-10-19T01:20:16.616Z,2.90
2022-10-19T01:20:47.188Z,2.70
2022-10-19T01:21:17.772Z,2.50
2022-10-19T01:21:48.337Z,2.60
2022-10-19T01:22:18.920Z,2.60
2022-10-19T01:22:49.495Z,2.60
2022-10-19T01:23:20.036Z,3.30
2022-10-19T01:23:50.580Z,3.00
2022-10-19T01:24:21.178Z,2.90
2022-10-19T01:24:51.815Z,2.60
2022-10-19T01:25:22.382Z,2.80
2022-10-19T01:25:52.983Z,2.40
2022-10-19T01:26:23.560Z,2.80
2022-10-19T01:26:54.115Z,2.60
2022-10-19T01:27:24.669Z,2.40
2022-10-19T01:27:55.234Z,2.50
2022-10-19T01:28:25.819Z,3.10
2022-10-19T01:28:56.468Z,2.50
2022-10-19T01:29:27.056Z,2.90
2022-10-19T01:29:57.636Z,2.60
2022-10-19T01:30:28.223Z,2.50
2022-10-19T01:30:58.764Z,2.50
2022-10-19T01:31:29.330Z,2.60
2022-10-19T01:31:59.900Z,2.40
2022-10-19T01:32:30.451Z,2.60
2022-10-19T01:33:01.014Z,2.80
2022-10-19T01:33:31.614Z,2.70
2022-10-19T01:34:02.172Z,3.00
2022-10-19T01:34:32.777Z,3.00
2022-10-19T01:35:03.379Z,2.90
2022-10-19T01:35:33.962Z,2.70
2022-10-19T01:36:04.530Z,3.00
2022-10-19T01:36:35.103Z,2.90
2022-10-19T01:37:05.680Z,2.90
2022-10-19T01:37:36.511Z,2.70
2022-10-19T01:38:07.194Z,2.80
2022-10-19T01:38:37.766Z,2.80
2022-10-19T01:39:08.330Z,3.20
2022-10-19T01:39:38.917Z,2.60
2022-10-19T01:40:09.494Z,3.10
2022-10-19T01:40:40.075Z,3.00
2022-10-19T01:41:10.613Z,3.20
2022-10-19T01:41:41.155Z,2.90
2022-10-19T01:42:11.707Z,3.10
2022-10-19T01:42:42.343Z,3.10
2022-10-19T01:43:12.919Z,2.90
2022-10-19T01:43:43.484Z,3.50
2022-10-19T01:44:14.066Z,3.10
2022-10-19T01:44:44.627Z,3.40
2022-10-19T01:45:15.213Z,3.20
2022-10-19T01:45:45.775Z,3.00
2022-10-19T01:46:16.337Z,3.10
2022-10-19T01:46:46.955Z,3.10
2022-10-19T01:47:17.519Z,3.40
2022-10-19T01:47:48.104Z,3.30
2022-10-19T01:48:18.686Z,4.00
2022-10-19T01:48:49.286Z,3.70
2022-10-19T01:49:19.854Z,3.60
2022-10-19T01:49:50.429Z,3.40
2022-10-19T01:50:20.979Z,3.90
2022-10-19T01:50:51.512Z,3.80
2022-10-19T01:51:22.072Z,3.80
2022-10-19T01:51:52.682Z,4.00
2022-10-19T01:52:23.254Z,3.90
2022-10-19T01:52:53.821Z,4.00
2022-10-19T01:53:24.368Z,3.90
2022-10-19T01:53:54.948Z,4.00
2022-10-19T01:54:25.520Z,4.40
2022-10-19T01:54:56.121Z,5.10
2022-10-19T01:55:26.696Z,4.30
2022-10-19T01:55:57.271Z,4.40
2022-10-19T01:56:27.841Z,3.60
2022-10-19T01:56:58.434Z,4.20
2022-10-19T01:57:29.007Z,4.70
2022-10-19T01:57:59.587Z,4.70
2022-10-19T01:58:30.158Z,4.40
2022-10-19T01:59:00.732Z,4.50
2022-10-19T01:59:31.414Z,4.60
2022-10-19T02:00:01.949Z,4.60
2022-10-19T02:00:32.527Z,4.40
2022-10-19T02:01:03.136Z,4.00
2022-10-19T02:01:33.690Z,4.20
2022-10-19T02:02:04.257Z,4.70
2022-10-19T02:02:35.173Z,4.60
2022-10-19T02:03:05.350Z,5.00
2022-10-19T02:03:35.907Z,5.00
2022-10-19T02:04:06.514Z,5.10
2022-10-19T02:04:37.069Z,5.00
2022-10-19T02:05:07.659Z,5.10
2022-10-19T02:05:38.248Z,5.30
2022-10-19T02:06:08.794Z,5.20
2022-10-19T02:06:39.361Z,5.30
2022-10-19T02:07:09.944Z,5.40
2022-10-19T02:07:40.520Z,4.70
2022-10-19T02:08:11.109Z,5.20
2022-10-19T02:08:41.670Z,4.90
2022-10-19T02:09:12.250Z,5.10
2022-10-19T02:09:42.791Z,5.20
2022-10-19T02:10:44.408Z,5.50
2022-10-19T02:11:14.980Z,5.00
2022-10-19T02:11:48.970Z,5.30
2022-10-19T02:12:16.306Z,6.20
2022-10-19T02:12:46.864Z,5.00
2022-10-19T02:13:17.588Z,5.40
2022-10-19T02:13:48.166Z,5.00
2022-10-19T02:14:18.744Z,5.80
2022-10-19T02:14:49.315Z,5.40
2022-10-19T02:15:19.883Z,5.30
2022-10-19T02:15:50.455Z,5.60
2022-10-19T02:16:21.050Z,5.00
2022-10-19T02:16:51.637Z,4.80
2022-10-19T02:17:22.265Z,5.00
2022-10-19T02:17:52.840Z,5.00
2022-10-19T02:18:23.417Z,5.20
2022-10-19T02:18:53.991Z,5.20
2022-10-19T02:19:55.156Z,5.40
2022-10-19T02:20:25.724Z,5.40
2022-10-19T02:20:56.299Z,5.30
2022-10-19T02:21:26.887Z,5.30
2022-10-19T02:21:57.458Z,5.20
2022-10-19T02:22:28.068Z,5.40
2022-10-19T02:22:58.645Z,5.30
2022-10-19T02:23:29.236Z,5.40
2022-10-19T02:23:59.813Z,5.20
2022-10-19T02:24:30.354Z,5.30
2022-10-19T02:25:00.917Z,5.50
2022-10-19T02:25:31.494Z,5.60
2022-10-19T02:26:02.065Z,4.90
2022-10-19T02:26:32.653Z,5.50
2022-10-19T02:27:03.241Z,5.20
2022-10-19T02:27:33.839Z,5.50
2022-10-19T02:28:04.396Z,5.20
2022-10-19T02:28:34.963Z,5.10
2022-10-19T02:29:05.523Z,5.10
2022-10-19T02:29:36.100Z,5.10
2022-10-19T02:30:06.664Z,5.20
2022-10-19T02:30:37.250Z,5.30
2022-10-19T02:31:07.816Z,5.70
2022-10-19T02:31:38.351Z,5.20
2022-10-19T02:32:08.932Z,5.20
2022-10-19T02:32:39.482Z,5.20
2022-10-19T02:33:10.028Z,5.40
2022-10-19T02:33:40.591Z,5.30
2022-10-19T02:34:11.152Z,4.90
2022-10-19T02:34:41.767Z,5.20
2022-10-19T02:35:12.324Z,4.80
2022-10-19T02:35:42.893Z,5.40
2022-10-19T02:36:13.473Z,5.40
2022-10-19T02:36:44.050Z,5.70
2022-10-19T02:37:14.709Z,5.40
2022-10-19T02:37:45.240Z,5.00
2022-10-19T02:38:15.824Z,5.30
2022-10-19T02:38:46.403Z,5.20
2022-10-19T02:39:16.973Z,5.70
2022-10-19T02:39:47.511Z,5.80
2022-10-19T02:40:18.055Z,6.10
2022-10-19T02:40:48.624Z,5.70
2022-10-19T02:41:19.184Z,5.70
2022-10-19T02:41:49.789Z,6.50
2022-10-19T02:42:20.347Z,6.30
2022-10-19T02:42:50.921Z,5.70
2022-10-19T02:43:21.505Z,5.20
2022-10-19T02:43:52.088Z,5.40
2022-10-19T02:44:22.680Z,5.70
2022-10-19T02:44:53.238Z,5.30
2022-10-19T02:45:23.809Z,5.50
2022-10-19T02:45:54.363Z,5.80
2022-10-19T02:46:24.928Z,6.10
2022-10-19T02:46:55.465Z,5.30
2022-10-19T02:47:26.057Z,5.60
2022-10-19T02:47:56.645Z,5.00
2022-10-19T02:48:27.225Z,5.50
2022-10-19T02:48:57.784Z,6.10
2022-10-19T02:49:28.348Z,5.90
2022-10-19T02:49:58.949Z,5.40
2022-10-19T02:50:29.475Z,5.90
2022-10-19T02:51:00.031Z,5.10
2022-10-19T02:51:30.621Z,6.00
2022-10-19T02:52:01.185Z,5.80
2022-10-19T02:52:31.776Z,5.30
2022-10-19T02:53:02.330Z,5.70
2022-10-19T02:53:33.060Z,5.40
2022-10-19T02:54:05.239Z,5.70
2022-10-19T02:54:34.523Z,5.30
2022-10-19T02:55:05.116Z,6.10
2022-10-19T02:55:35.719Z,5.60
2022-10-19T02:56:06.276Z,5.90
2022-10-19T02:56:36.834Z,5.30
2022-10-19T02:57:07.421Z,5.70
2022-10-19T02:57:38.003Z,5.60
2022-10-19T02:58:08.603Z,5.90
2022-10-19T02:58:39.177Z,6.00
2022-10-19T02:59:09.733Z,5.60
2022-10-19T02:59:40.298Z,5.60
2022-10-19T03:00:10.869Z,5.10
2022-10-19T03:00:41.482Z,5.30
2022-10-19T03:01:12.081Z,5.90
2022-10-19T03:01:42.632Z,5.50
2022-10-19T03:02:13.211Z,6.30
2022-10-19T03:02:43.802Z,6.10
2022-10-19T03:03:14.391Z,5.10
2022-10-19T03:03:44.965Z,5.70
2022-10-19T03:04:15.530Z,5.50
2022-10-19T03:05:16.714Z,5.60
2022-10-19T03:05:47.250Z,5.20
2022-10-19T03:06:17.836Z,5.30
2022-10-19T03:06:48.397Z,5.40
2022-10-19T03:07:18.924Z,5.30
2022-10-19T03:07:49.484Z,5.70
2022-10-19T03:08:20.075Z,5.90
2022-10-19T03:08:50.622Z,5.80
2022-10-19T03:09:21.203Z,5.50
2022-10-19T03:09:51.731Z,5.00
2022-10-19T03:10:22.302Z,5.40
2022-10-19T03:10:52.881Z,5.40
2022-10-19T03:11:23.443Z,5.90
2022-10-19T03:11:53.992Z,5.20
2022-10-19T03:12:24.583Z,6.00
2022-10-19T03:12:55.175Z,5.30
2022-10-19T03:13:25.762Z,5.50
2022-10-19T03:13:56.322Z,5.40
2022-10-19T03:14:26.915Z,5.30
2022-10-19T03:14:57.491Z,5.70
2022-10-19T03:15:28.067Z,4.80
2022-10-19T03:15:58.635Z,5.20
2022-10-19T03:16:29.240Z,5.40
2022-10-19T03:16:59.795Z,5.40
2022-10-19T03:17:30.368Z,5.50
2022-10-19T03:18:01.011Z,5.20
2022-10-19T03:18:31.682Z,5.50
2022-10-19T03:19:02.208Z,5.50
2022-10-19T03:19:32.799Z,5.40
2022-10-19T03:20:03.378Z,5.60
2022-10-19T03:20:33.977Z,5.50
2022-10-19T03:21:04.513Z,5.20
2022-10-19T03:21:35.099Z,5.20
2022-10-19T03:22:05.680Z,5.90
2022-10-19T03:22:36.232Z,5.60
2022-10-19T03:23:06.813Z,5.40
2022-10-19T03:23:37.396Z,6.30
2022-10-19T03:24:07.959Z,5.80
2022-10-19T03:24:38.502Z,5.60
2022-10-19T03:25:09.058Z,5.60
2022-10-19T03:25:39.669Z,6.40
2022-10-19T03:26:12.253Z,5.80
2022-10-19T03:26:40.956Z,6.00
2022-10-19T03:27:11.525Z,5.80
2022-10-19T03:27:42.115Z,6.10
2022-10-19T03:28:12.693Z,5.60
2022-10-19T03:28:43.395Z,6.00
2022-10-19T03:29:14.044Z,6.10
2022-10-19T03:29:44.582Z,6.60
2022-10-19T03:30:15.148Z,6.00
2022-10-19T03:30:45.696Z,5.80
2022-10-19T03:31:16.283Z,6.50
2022-10-19T03:31:46.861Z,6.10
2022-10-19T03:32:17.385Z,5.70
2022-10-19T03:32:47.959Z,5.40
2022-10-19T03:33:18.612Z,6.00
2022-10-19T03:33:49.157Z,6.00
2022-10-19T03:34:19.758Z,5.70
2022-10-19T03:34:50.327Z,6.10
2022-10-19T03:35:20.920Z,5.40
2022-10-19T03:35:51.489Z,5.60
2022-10-19T03:36:22.017Z,5.20
2022-10-19T03:36:52.593Z,5.40
2022-10-19T03:37:23.141Z,5.90
2022-10-19T03:37:53.736Z,5.40
2022-10-19T03:38:24.323Z,5.10
2022-10-19T03:38:54.904Z,5.60
2022-10-19T03:39:25.476Z,5.70
2022-10-19T03:39:56.032Z,5.80
2022-10-19T03:40:26.609Z,5.50
2022-10-19T03:40:57.163Z,6.80
2022-10-19T03:41:27.759Z,5.70
2022-10-19T03:41:58.335Z,5.80
2022-10-19T03:42:28.893Z,5.80
2022-10-19T03:42:59.459Z,5.40
2022-10-19T03:43:30.033Z,5.60
2022-10-19T03:44:31.176Z,5.30
2022-10-19T03:45:01.781Z,5.80
2022-10-19T03:45:32.350Z,5.50
2022-10-19T03:46:02.949Z,5.20
2022-10-19T03:46:33.498Z,5.50
2022-10-19T03:47:04.072Z,5.80
2022-10-19T03:47:35.022Z,5.70
2022-10-19T03:48:05.198Z,5.40
2022-10-19T03:48:35.741Z,5.20
2022-10-19T03:49:06.313Z,5.80
2022-10-19T03:49:39.513Z,5.40
2022-10-19T03:50:07.763Z,5.40
2022-10-19T03:50:38.351Z,5.30
2022-10-19T03:51:08.947Z,5.40
2022-10-19T03:51:39.483Z,6.20
2022-10-19T03:52:10.237Z,5.80
2022-10-19T03:52:40.857Z,5.60
2022-10-19T03:53:11.441Z,5.60
2022-10-19T03:53:42.019Z,5.40
2022-10-19T03:54:12.616Z,5.50
2022-10-19T03:54:43.189Z,6.10
2022-10-19T03:55:13.786Z,5.60
2022-10-19T03:55:44.328Z,5.70
2022-10-19T03:56:14.966Z,5.40
2022-10-19T03:56:45.541Z,5.70
2022-10-19T03:57:16.104Z,5.50
2022-10-19T03:57:46.650Z,6.30
2022-10-19T03:58:17.239Z,5.10
2022-10-19T03:58:47.826Z,5.40
2022-10-19T03:59:18.394Z,5.60
2022-10-19T03:59:48.963Z,5.30
2022-10-19T04:00:19.512Z,6.20
2022-10-19T04:00:50.136Z,5.70
2022-10-19T04:01:20.858Z,5.70
2022-10-19T04:01:51.437Z,5.20
2022-10-19T04:02:21.993Z,6.00
2022-10-19T04:02:52.582Z,6.00
2022-10-19T04:03:23.155Z,5.90
2022-10-19T04:03:53.691Z,5.10
2022-10-19T04:04:24.256Z,6.10
2022-10-19T04:04:54.863Z,5.30
2022-10-19T04:05:25.453Z,5.70
2022-10-19T04:05:56.048Z,5.20
2022-10-19T04:06:26.636Z,5.90
2022-10-19T04:06:57.207Z,5.60
2022-10-19T04:07:27.790Z,4.80
2022-10-19T04:07:58.319Z,5.30
2022-10-19T04:08:28.894Z,5.40
2022-10-19T04:08:59.462Z,4.90
2022-10-19T04:09:30.026Z,5.40
2022-10-19T04:10:00.613Z,5.30
2022-10-19T04:10:31.178Z,5.40
2022-10-19T04:11:01.749Z,5.10
2022-10-19T04:11:32.313Z,5.20
2022-10-19T04:12:02.897Z,5.10
2022-10-19T04:12:33.490Z,5.60
2022-10-19T04:13:04.057Z,4.70
2022-10-19T04:13:34.617Z,5.70
2022-10-19T04:14:05.310Z,5.20
2022-10-19T04:14:52.410Z,5.20
2022-10-19T04:15:06.703Z,5.70
2022-10-19T04:15:37.265Z,5.90
2022-10-19T04:16:07.842Z,5.30
2022-10-19T04:16:38.416Z,5.20
2022-10-19T04:17:08.984Z,5.60
2022-10-19T04:17:39.514Z,5.30
2022-10-19T04:18:10.078Z,5.40
2022-10-19T04:18:40.710Z,5.60
2022-10-19T04:19:11.278Z,5.50
2022-10-19T04:19:41.858Z,5.80
2022-10-19T04:20:12.402Z,5.00
2022-10-19T04:20:42.969Z,4.80
2022-10-19T04:21:13.548Z,5.20
2022-10-19T04:21:44.148Z,5.60
2022-10-19T04:22:14.699Z,5.40
2022-10-19T04:22:45.290Z,5.20
2022-10-19T04:23:46.395Z,5.00
2022-10-19T04:24:16.997Z,5.10
2022-10-19T04:24:47.555Z,5.10
2022-10-19T04:25:18.147Z,5.10
2022-10-19T04:25:48.743Z,5.70
2022-10-19T04:26:19.298Z,5.30
2022-10-19T04:26:49.871Z,5.50
2022-10-19T04:27:20.442Z,5.50
2022-10-19T04:27:50.993Z,5.10
2022-10-19T04:28:21.551Z,5.40
2022-10-19T04:28:52.192Z,5.00
2022-10-19T04:29:25.023Z,5.60
2022-10-19T04:29:53.538Z,5.10
2022-10-19T04:30:24.127Z,4.90
2022-10-19T04:30:54.694Z,5.10
2022-10-19T04:31:25.261Z,4.60
2022-10-19T04:31:55.838Z,5.20
2022-10-19T04:32:26.423Z,4.40
2022-10-19T04:32:57.006Z,5.20
2022-10-19T04:33:27.559Z,4.80
2022-10-19T04:33:58.115Z,5.20
2022-10-19T04:34:28.709Z,5.60
2022-10-19T04:34:59.282Z,5.10
2022-10-19T04:35:29.869Z,5.30
2022-10-19T04:36:00.480Z,4.70
2022-10-19T04:36:31.108Z,4.60
2022-10-19T04:37:01.710Z,5.20
2022-10-19T04:37:32.754Z,4.90
2022-10-19T04:38:02.901Z,4.90
2022-10-19T04:38:33.444Z,5.00
2022-10-19T04:39:04.006Z,5.20
2022-10-19T04:39:34.580Z,4.70
2022-10-19T04:40:05.152Z,4.80
2022-10-19T04:40:35.689Z,5.10
2022-10-19T04:41:06.257Z,4.90
2022-10-19T04:41:36.857Z,4.80
2022-10-19T04:42:07.448Z,5.10
2022-10-19T04:42:38.011Z,4.60
2022-10-19T04:43:08.591Z,4.70
2022-10-19T04:43:39.137Z,4.90
2022-10-19T04:44:09.804Z,4.70
2022-10-19T04:44:40.417Z,5.00
2022-10-19T04:45:10.960Z,4.70
2022-10-19T04:45:41.539Z,4.70
2022-10-19T04:46:12.117Z,4.90
2022-10-19T04:46:42.705Z,4.90
2022-10-19T04:47:13.275Z,4.50
2022-10-19T04:47:43.840Z,4.50
2022-10-19T04:48:15.229Z,4.60
2022-10-19T04:48:45.423Z,4.80
2022-10-19T04:49:19.382Z,4.70
2022-10-19T04:49:45.780Z,4.90
2022-10-19T04:50:17.375Z,4.80
2022-10-19T04:50:47.927Z,4.60
2022-10-19T04:51:18.508Z,4.70
2022-10-19T04:51:49.072Z,4.50
2022-10-19T04:52:19.663Z,4.50
2022-10-19T04:52:50.218Z,5.10
2022-10-19T04:53:20.902Z,4.40
2022-10-19T04:53:52.508Z,4.10
2022-10-19T04:54:22.374Z,3.90
2022-10-19T04:54:52.957Z,4.60
2022-10-19T04:55:23.531Z,4.50
2022-10-19T04:55:54.085Z,4.70
2022-10-19T04:56:24.673Z,4.10
2022-10-19T04:56:55.261Z,4.10
2022-10-19T04:57:25.819Z,4.60
2022-10-19T04:57:56.458Z,4.20
2022-10-19T04:58:27.004Z,4.40
2022-10-19T04:58:57.643Z,4.60
2022-10-19T04:59:28.186Z,4.80
2022-10-19T04:59:58.754Z,4.70
2022-10-19T05:00:29.323Z,4.90
2022-10-19T05:01:00.003Z,4.30
2022-10-19T05:01:30.643Z,4.50
2022-10-19T05:02:01.190Z,4.60
2022-10-19T05:02:31.759Z,4.40
2022-10-19T05:03:02.320Z,4.10
2022-10-19T05:03:32.888Z,4.40
2022-10-19T05:04:03.484Z,4.00
2022-10-19T05:04:34.062Z,4.60
2022-10-19T05:05:04.650Z,4.30
2022-10-19T05:05:35.226Z,4.40
2022-10-19T05:06:05.814Z,4.40
2022-10-19T05:06:36.386Z,4.00
2022-10-19T05:07:06.999Z,4.60
2022-10-19T05:07:37.577Z,4.80
2022-10-19T05:08:08.179Z,4.20
2022-10-19T05:08:38.948Z,4.50
2022-10-19T05:09:09.805Z,4.00
2022-10-19T05:09:41.114Z,4.70
2022-10-19T05:10:12.356Z,4.50
2022-10-19T05:10:44.311Z,4.40
2022-10-19T05:11:13.170Z,4.50
2022-10-19T05:11:44.278Z,4.20
2022-10-19T05:12:14.324Z,5.00
2022-10-19T05:12:44.978Z,4.40
2022-10-19T05:13:15.547Z,4.50
2022-10-19T05:13:46.133Z,4.50
2022-10-19T05:14:16.789Z,3.90
2022-10-19T05:14:47.350Z,4.40
2022-10-19T05:15:17.920Z,4.00
2022-10-19T05:15:48.516Z,4.10
2022-10-19T05:16:19.125Z,4.00
2022-10-19T05:16:49.742Z,4.00
2022-10-19T05:17:20.272Z,4.20
2022-10-19T05:17:50.861Z,4.40
2022-10-19T05:18:21.557Z,4.70
2022-10-19T05:18:52.124Z,4.40
2022-10-19T05:19:22.696Z,4.30
2022-10-19T05:19:53.245Z,5.10
2022-10-19T05:20:23.929Z,4.40
2022-10-19T05:20:54.451Z,3.80
2022-10-19T05:21:25.454Z,4.40
2022-10-19T05:21:56.490Z,4.50
2022-10-19T05:22:27.022Z,4.10
2022-10-19T05:22:57.678Z,4.10
2022-10-19T05:23:28.270Z,4.10
2022-10-19T05:23:58.841Z,4.20
2022-10-19T05:24:29.396Z,4.40
2022-10-19T05:24:59.928Z,4.30
2022-10-19T05:25:30.462Z,4.20
2022-10-19T05:26:01.043Z,4.10
2022-10-19T05:26:31.585Z,4.60
2022-10-19T05:27:02.117Z,4.30
2022-10-19T05:27:33.599Z,4.20
2022-10-19T05:28:03.896Z,4.20
2022-10-19T05:28:34.539Z,4.60
2022-10-19T05:29:05.160Z,3.80
2022-10-19T05:29:35.680Z,3.80
2022-10-19T05:30:06.782Z,4.10
2022-10-19T05:30:37.318Z,4.40
2022-10-19T05:31:07.870Z,4.30
2022-10-19T05:31:38.414Z,4.00
2022-10-19T05:32:08.941Z,4.80
2022-10-19T05:32:39.467Z,4.70
2022-10-19T05:33:10.001Z,3.90
2022-10-19T05:33:40.565Z,4.40
2022-10-19T05:34:11.089Z,4.70
2022-10-19T05:34:41.596Z,4.40
2022-10-19T05:35:12.663Z,4.10
2022-10-19T05:35:43.184Z,4.10
2022-10-19T05:36:13.722Z,4.20
2022-10-19T05:36:44.735Z,4.60
2022-10-19T05:37:15.782Z,4.50
2022-10-19T05:37:46.299Z,4.60
2022-10-19T05:38:16.850Z,3.30
2022-10-19T05:38:47.345Z,4.00
2022-10-19T05:39:17.887Z,4.20
2022-10-19T05:39:48.386Z,4.20
2022-10-19T05:40:19.402Z,4.30
2022-10-19T05:40:53.496Z,4.00
2022-10-19T05:41:20.604Z,4.30
2022-10-19T05:41:51.140Z,3.90
2022-10-19T05:42:22.147Z,4.10
2022-10-19T05:42:53.158Z,4.40
2022-10-19T05:43:23.683Z,4.00
2022-10-19T05:43:54.697Z,4.10
2022-10-19T05:44:25.793Z,4.40
2022-10-19T05:44:56.294Z,4.50
2022-10-19T05:45:27.312Z,4.70
2022-10-19T05:45:58.405Z,4.70
2022-10-19T05:46:28.943Z,4.00
2022-10-19T05:46:59.454Z,3.90
2022-10-19T05:47:31.079Z,4.60
2022-10-19T05:48:00.725Z,4.60
2022-10-19T05:48:31.241Z,4.30
2022-10-19T05:49:02.289Z,4.30
2022-10-19T05:49:32.851Z,4.70
2022-10-19T05:50:03.379Z,4.50
2022-10-19T05:50:34.383Z,4.20
2022-10-19T05:51:05.398Z,4.60
2022-10-19T05:51:36.442Z,4.80
2022-10-19T05:52:06.952Z,4.60
2022-10-19T05:52:38.067Z,4.40
2022-10-19T05:53:08.661Z,4.40
2022-10-19T05:54:10.168Z,4.50
2022-10-19T05:54:41.204Z,4.20
2022-10-19T05:55:11.749Z,4.60
2022-10-19T05:55:42.292Z,4.30
2022-10-19T05:56:12.802Z,4.70
2022-10-19T05:56:43.360Z,4.70
2022-10-19T05:57:13.948Z,4.00
2022-10-19T05:57:44.534Z,4.80
2022-10-19T05:58:15.059Z,4.70
2022-10-19T05:58:45.608Z,4.80
2022-10-19T05:59:16.153Z,4.80
2022-10-19T05:59:47.167Z,4.70
2022-10-19T06:00:17.688Z,4.50
2022-10-19T06:00:48.724Z,5.00
2022-10-19T06:01:19.249Z,5.30
2022-10-19T06:01:50.298Z,4.80
2022-10-19T06:02:20.873Z,4.80
2022-10-19T06:02:54.668Z,4.90
2022-10-19T06:03:22.626Z,4.90
2022-10-19T06:03:53.666Z,4.70
2022-10-19T06:04:24.190Z,4.40
2022-10-19T06:04:55.202Z,5.00
2022-10-19T06:05:26.232Z,4.60
2022-10-19T06:05:57.268Z,5.40
2022-10-19T06:06:28.283Z,4.90
2022-10-19T06:06:58.807Z,4.60
2022-10-19T06:07:29.924Z,4.80
2022-10-19T06:08:00.430Z,4.60
2022-10-19T06:08:30.952Z,4.80
2022-10-19T06:09:01.515Z,4.80
2022-10-19T06:09:32.521Z,4.70
2022-10-19T06:10:03.045Z,5.00
2022-10-19T06:10:33.565Z,5.10
2022-10-19T06:11:04.598Z,5.20
2022-10-19T06:11:35.627Z,4.90
2022-10-19T06:12:06.652Z,4.50
2022-10-19T06:12:37.685Z,4.50
2022-10-19T06:13:08.200Z,5.50
2022-10-19T06:13:38.737Z,5.20
2022-10-19T06:14:09.253Z,4.90
2022-10-19T06:14:40.342Z,5.20
2022-10-19T06:15:10.855Z,4.90
2022-10-19T06:15:41.879Z,5.10
2022-10-19T06:16:12.410Z,4.60
2022-10-19T06:16:43.405Z,4.90
2022-10-19T06:17:14.445Z,4.50
2022-10-19T06:17:45.034Z,5.60
2022-10-19T06:18:15.535Z,5.40
2022-10-19T06:18:46.054Z,5.00
2022-10-19T06:19:16.581Z,5.00
2022-10-19T06:19:47.151Z,5.20
2022-10-19T06:20:17.661Z,5.10
2022-10-19T06:20:48.668Z,5.00
2022-10-19T06:21:19.735Z,5.00
2022-10-19T06:21:50.237Z,5.00
2022-10-19T06:22:21.248Z,5.40
2022-10-19T06:22:52.243Z,5.90
2022-10-19T06:23:22.770Z,6.50
2022-10-19T06:23:53.808Z,5.90
2022-10-19T06:24:24.851Z,6.40
2022-10-19T06:24:55.332Z,7.00
2022-10-19T06:25:26.358Z,7.00
2022-10-19T06:25:56.915Z,8.10
2022-10-19T06:26:27.395Z,7.90
2022-10-19T06:26:57.917Z,7.20
2022-10-19T06:27:28.954Z,6.20
2022-10-19T06:27:59.452Z,6.30
2022-10-19T06:28:30.490Z,5.90
2022-10-19T06:29:01.030Z,5.40
2022-10-19T06:29:31.539Z,5.90
2022-10-19T06:30:02.069Z,5.30
2022-10-19T06:30:32.687Z,5.50
2022-10-19T06:31:06.046Z,5.60
2022-10-19T06:31:33.931Z,5.50
2022-10-19T06:32:04.436Z,5.40
2022-10-19T06:32:35.476Z,6.00
2022-10-19T06:33:06.490Z,5.50
2022-10-19T06:33:37.107Z,5.70
2022-10-19T06:34:07.822Z,5.60
2022-10-19T06:34:38.328Z,5.80
2022-10-19T06:35:08.862Z,5.70
2022-10-19T06:35:39.379Z,5.80
2022-10-19T06:36:09.922Z,6.10
2022-10-19T06:36:40.436Z,5.70
2022-10-19T06:37:10.965Z,6.10
2022-10-19T06:37:41.484Z,5.80
2022-10-19T06:38:12.419Z,6.20
2022-10-19T06:38:42.969Z,6.10
2022-10-19T06:39:13.585Z,6.00
2022-10-19T06:39:44.715Z,5.40
2022-10-19T06:40:15.309Z,6.70
2022-10-19T06:40:45.828Z,5.80
2022-10-19T06:41:16.857Z,5.90
2022-10-19T06:41:47.882Z,7.20
2022-10-19T06:42:18.394Z,6.10
2022-10-19T06:42:49.429Z,6.60
2022-10-19T06:43:19.961Z,5.90
2022-10-19T06:43:50.999Z,5.80
2022-10-19T06:44:21.530Z,6.20
2022-10-19T06:44:52.534Z,6.30
2022-10-19T06:45:23.577Z,6.00
2022-10-19T06:45:54.082Z,5.50
2022-10-19T06:46:25.116Z,5.70
2022-10-19T06:46:56.130Z,5.90
2022-10-19T06:47:27.143Z,5.80
2022-10-19T06:47:58.560Z,6.00
2022-10-19T06:48:28.978Z,5.80
2022-10-19T06:48:59.503Z,5.80
2022-10-19T06:49:30.532Z,5.70
2022-10-19T06:50:01.578Z,5.40
2022-10-19T06:50:32.090Z,5.60
2022-10-19T06:51:05.911Z,5.60
2022-10-19T06:51:34.126Z,5.50